Latest Weather Observations for Naracoorte

IDS60801

Issued at 10:31 pm CDT Sunday 17 December 2017 (issued every 30 minutes, with the page automatically refreshed every 10 minutes)

About weather observations | Map of weather stations | Latest weather observations for SA | Other Formats
Station Details ID: 026099 Name: NARACOORTE AERODROME Lat: -36.98 Lon: 140.73 Height: 49.72 m
Data from the previous 72 hours. | See also: Recent months at Naracoorte
Date/Time
CDT
Temp
°C
App
Temp
°C
Dew
Point
°C
Rel
Hum
%
Delta-T
°C
Wind Press
QNH
hPa
Press
MSL
hPa
Rain since
9am
mm
Dir  Spd
km/h
Gust
km/h
Spd
kts
Gust
kts
17/10:30pm 19.9 19.0 9.2 50 5.7 SE 4 7 2 4 1011.7 1011.6 0.0
17/10:00pm 20.7 17.6 9.0 47 6.2 SSE 15 15 8 8 1011.6 1011.5 0.0
17/09:30pm 21.2 19.2 8.8 45 6.6 SSE 9 11 5 6 1011.8 1011.7 0.0
17/09:00pm 21.7 20.1 7.9 41 7.2 ESE 6 7 3 4 1011.5 1011.4 0.0
17/08:30pm 24.5 20.6 7.2 33 9.1 E 17 20 9 11 1010.5 1010.4 0.0
17/08:00pm 25.0 21.2 7.6 33 9.2 E 17 22 9 12 1010.5 1010.4 0.0
17/07:30pm 25.3 22.7 7.9 33 9.3 E 11 15 6 8 1011.2 1011.1 0.0
17/07:00pm 26.1 23.6 8.1 32 9.7 SE 11 11 6 6 1011.8 1011.7 0.0
17/06:30pm 27.2 24.1 7.1 28 10.7 SE 13 17 7 9 1011.3 1011.2 0.0
17/06:00pm 27.8 25.0 7.1 27 11.0 SE 11 15 6 8 1011.6 1011.5 0.0
17/05:30pm 28.2 25.5 7.4 27 11.2 ESE 11 15 6 8 1012.2 1012.1 0.0
17/05:00pm 28.2 25.9 7.4 27 11.2 SSE 9 11 5 6 1012.6 1012.5 0.0
17/04:30pm 28.3 26.0 7.5 27 11.2 SE 9 13 5 7 1012.8 1012.7 0.0
17/04:00pm 28.5 26.5 7.1 26 11.5 ESE 7 11 4 6 1012.5 1012.4 0.0
17/03:30pm 28.3 26.3 7.0 26 11.4 ENE 7 13 4 7 1012.9 1012.8 0.0
17/03:00pm 28.4 26.7 7.6 27 11.2 SSE 6 15 3 8 1013.1 1013.0 0.0
17/02:30pm 27.6 24.4 6.9 27 11.0 NE 13 17 7 9 1013.1 1013.0 0.0
17/02:00pm 27.9 25.9 8.7 30 10.5 E 9 17 5 9 1013.4 1013.3 0.0
17/01:30pm 27.0 24.8 8.0 30 10.2 NNE 9 17 5 9 1014.0 1013.9 0.0
17/01:00pm 27.3 25.1 9.2 32 10.0 ENE 11 17 6 9 1014.5 1014.4 0.0
17/12:30pm 26.3 24.0 10.5 37 8.9 SE 13 22 7 12 1014.9 1014.8 0.0
17/12:00pm 25.3 23.3 11.5 42 7.8 ESE 13 20 7 11 1015.4 1015.3 0.0
17/11:30am 24.2 22.4 12.2 47 6.9 SE 13 17 7 9 1015.6 1015.5 0.0
17/11:00am 23.2 21.7 11.9 49 6.4 SE 11 20 6 11 1015.7 1015.6 0.0
17/10:30am 22.8 21.7 12.1 51 6.1 ESE 9 13 5 7 1015.7 1015.6 0.0
17/10:00am 21.7 20.3 12.3 55 5.3 E 11 15 6 8 1015.7 1015.6 0.0
17/09:30am 21.1 19.3 12.0 56 5.1 E 13 17 7 9 1015.6 1015.5 0.0
17/09:00am 20.4 18.1 11.9 58 4.7 ENE 15 19 8 10 1015.8 1015.7 0.0
17/08:30am 19.5 17.5 12.8 65 3.8 E 15 20 8 11 1015.8 1015.7 0.0
17/08:00am 17.6 15.9 12.5 72 2.8 E 13 17 7 9 1015.7 1015.6 0.0
17/07:30am 15.6 14.6 12.2 80 1.9 SE 9 13 5 7 1015.3 1015.2 0.0
17/07:00am 13.4 12.4 12.3 93 0.6 SSE 9 11 5 6 1015.1 1015.0 0.0
17/06:30am 12.7 12.2 12.1 96 0.3 SSE 6 11 3 6 1015.0 1014.9 0.0
17/06:00am 10.7 9.4 9.9 95 0.4 SSE 7 9 4 5 1014.7 1014.6 0.0
17/05:30am 10.6 8.5 9.8 95 0.4 S 11 11 6 6 1014.8 1014.7 0.0
17/05:00am 11.1 9.1 10.3 95 0.4 S 11 13 6 7 1014.5 1014.4 0.0
17/04:30am 11.3 9.4 10.5 95 0.4 S 11 13 6 7 1014.0 1013.9 0.0
17/04:00am 11.3 9.4 10.5 95 0.4 S 11 13 6 7 1014.3 1014.2 0.0
17/03:30am 11.6 9.8 10.8 95 0.4 S 11 13 6 7 1014.1 1014.0 0.0
17/03:00am 11.5 8.9 10.6 94 0.5 SSE 15 17 8 9 1014.6 1014.5 0.0
17/02:30am 11.5 10.0 10.6 94 0.5 SSE 9 11 5 6 1015.2 1015.1 0.0
17/02:00am 12.0 9.8 10.9 93 0.6 S 13 15 7 8 1015.5 1015.4 0.0
17/01:30am 12.3 10.2 11.0 92 0.7 SSE 13 15 7 8 1015.5 1015.4 0.0
17/01:00am 12.8 10.8 11.4 91 0.7 SSE 13 15 7 8 1015.7 1015.6 0.0
17/12:30am 13.4 11.4 11.6 89 1.0 SSE 13 15 7 8 1016.0 1015.9 0.0
17/12:00am 13.9 12.0 11.8 87 1.1 SSE 13 15 7 8 1016.4 1016.3 0.0
 
Date/Time
CDT
Temp
°C
App
Temp
°C
Dew
Point
°C
Rel
Hum
%
Delta-T
°C
Wind Press
QNH
hPa
Press
MSL
hPa
Rain since
9am
mm
Dir  Spd
km/h
Gust
km/h
Spd
kts
Gust
kts
16/11:30pm 14.3 12.1 12.0 86 1.2 SSE 15 17 8 9 1016.3 1016.2 0.0
16/11:00pm 15.3 13.2 12.4 83 1.6 SSE 15 17 8 9 1016.4 1016.3 0.0
16/10:30pm 16.3 13.5 12.7 79 2.0 SSE 19 24 10 13 1016.7 1016.6 0.0
16/10:00pm 17.4 12.9 12.7 74 2.6 S 28 33 15 18 1016.5 1016.4 0.0
16/09:30pm 17.9 14.6 12.8 72 2.9 S 22 28 12 15 1016.1 1016.0 0.0
16/09:00pm 18.5 15.1 12.5 68 3.3 S 22 28 12 15 1016.0 1015.9 0.0
16/08:30pm 19.4 15.7 12.7 65 3.8 S 24 32 13 17 1015.4 1015.3 0.0
16/08:00pm 20.9 16.7 12.3 58 4.8 S 26 33 14 18 1014.9 1014.8 0.0
16/07:30pm 23.5 19.0 11.5 47 6.7 S 26 35 14 19 1014.6 1014.5 0.0
16/07:00pm 24.8 21.2 10.7 41 7.9 S 20 26 11 14 1014.1 1014.0 0.0
16/06:30pm 25.3 21.6 10.0 38 8.5 S 20 28 11 15 1013.7 1013.6 0.0
16/06:00pm 25.8 22.3 8.8 34 9.2 SSW 17 22 9 12 1013.5 1013.4 0.0
16/05:30pm 25.6 22.8 8.6 34 9.2 SSW 13 19 7 10 1013.4 1013.3 0.0
16/05:00pm 25.8 22.5 9.6 36 8.9 S 17 24 9 13 1013.5 1013.4 0.0
16/04:30pm 25.7 22.4 9.5 36 8.9 SSE 17 28 9 15 1013.8 1013.7 0.0
16/04:00pm 26.7 24.0 9.1 33 9.7 SW 13 24 7 13 1013.9 1013.8 0.0
16/03:30pm 25.7 22.1 8.2 33 9.4 SW 17 24 9 13 1014.0 1013.9 0.0
16/03:00pm 25.8 22.7 8.8 34 9.2 SW 15 24 8 13 1014.2 1014.1 0.0
16/02:30pm 25.1 21.7 9.0 36 8.7 WSW 17 26 9 14 1014.6 1014.5 0.0
16/02:00pm 25.2 22.4 9.9 38 8.4 SW 15 26 8 14 1014.9 1014.8 0.0
16/01:30pm 24.4 20.9 10.3 41 7.8 S 19 26 10 14 1015.0 1014.9 0.0
16/01:00pm 24.4 22.3 11.0 43 7.5 SW 13 24 7 13 1015.4 1015.3 0.0
16/12:30pm 23.0 20.8 9.4 42 7.3 SW 11 26 6 14 1015.7 1015.6 0.0
16/12:00pm 22.7 20.8 10.5 46 6.7 WSW 11 19 6 10 1015.7 1015.6 0.0
16/11:30am 22.0 19.7 10.5 48 6.3 SW 13 22 7 12 1015.8 1015.7 0.0
16/11:00am 21.6 19.4 10.7 50 6.0 SSW 13 20 7 11 1015.8 1015.7 0.0
16/10:30am 20.5 18.5 10.0 51 5.7 S 11 20 6 11 1015.9 1015.8 0.0
16/10:00am 20.1 17.8 10.5 54 5.2 SSW 13 20 7 11 1015.9 1015.8 0.0
16/09:30am 19.2 17.0 10.7 58 4.6 SW 13 19 7 10 1016.0 1015.9 0.0
16/09:00am 18.1 16.4 12.3 69 3.2 WSW 13 19 7 10 1015.8 1015.7 0.0
16/08:30am 17.9 16.4 13.2 74 2.6 WSW 13 17 7 9 1015.6 1015.5 0.0
16/08:00am 16.0 15.1 12.7 81 1.8 NW 9 13 5 7 1015.2 1015.1 0.0
16/07:30am 14.8 14.2 11.8 82 1.6 NW 6 9 3 5 1014.9 1014.8 0.0
16/07:00am 12.8 11.9 10.5 86 1.2 N 6 9 3 5 1014.5 1014.4 0.0
16/06:30am 11.5 10.4 9.9 90 0.8 N 6 7 3 4 1014.2 1014.1 0.0
16/06:00am 10.8 10.0 9.6 92 0.6 N 4 7 2 4 1014.0 1013.9 0.0
16/05:30am 10.0 9.7 8.8 92 0.6 CALM 0 0 0 0 1013.8 1013.7 0.0
16/05:00am 10.2 8.8 8.8 91 0.7 N 6 7 3 4 1013.5 1013.4 0.0
16/04:30am 10.0 8.5 8.6 91 0.7 N 6 6 3 3 1013.3 1013.2 0.0
16/04:00am 10.1 9.8 8.5 90 0.8 CALM 0 0 0 0 1013.2 1013.1 0.0
16/03:30am 10.5 10.3 9.1 91 0.7 CALM 0 0 0 0 1012.9 1012.8 0.0
16/03:00am 10.1 9.8 8.7 91 0.7 CALM 0 0 0 0 1012.8 1012.7 0.0
16/02:30am 10.6 10.4 9.0 90 0.8 CALM 0 0 0 0 1013.0 1012.9 0.0
16/02:00am 11.6 11.6 9.7 88 1.0 CALM 0 0 0 0 1013.1 1013.0 0.0
16/01:30am 11.0 10.8 8.9 87 1.0 CALM 0 0 0 0 1013.2 1013.1 0.0
16/01:00am 11.8 11.7 9.5 86 1.2 CALM 0 0 0 0 1013.2 1013.1 0.0
16/12:30am 11.9 11.8 9.5 85 1.2 CALM 0 0 0 0 1013.3 1013.2 0.0
16/12:00am 12.5 12.4 9.5 82 1.5 CALM 0 0 0 0 1013.4 1013.3 0.0
 
Date/Time
CDT
Temp
°C
App
Temp
°C
Dew
Point
°C
Rel
Hum
%
Delta-T
°C
Wind Press
QNH
hPa
Press
MSL
hPa
Rain since
9am
mm
Dir  Spd
km/h
Gust
km/h
Spd
kts
Gust
kts
15/11:30pm 12.1 12.0 9.3 83 1.4 CALM 0 0 0 0 1013.5 1013.4 0.0
15/11:00pm 12.6 11.7 9.4 81 1.6 SE 4 6 2 3 1013.6 1013.5 0.0
15/10:30pm 12.5 11.2 9.3 81 1.6 SSW 6 7 3 4 1013.5 1013.4 0.0
15/10:00pm 12.7 10.9 9.3 80 1.7 SW 9 11 5 6 1013.4 1013.3 0.0
15/09:30pm 13.8 11.6 9.3 74 2.3 SW 11 13 6 7 1013.1 1013.0 0.0
15/09:00pm 14.9 12.2 9.1 68 3.0 SW 13 17 7 9 1012.7 1012.6 0.0
15/08:30pm 16.7 13.6 8.7 59 4.1 SW 15 17 8 9 1012.5 1012.4 0.0
15/08:00pm 19.1 15.1 9.0 52 5.3 WSW 20 24 11 13 1012.1 1012.0 0.0
15/07:30pm 20.5 16.1 9.1 48 6.0 WSW 22 28 12 15 1011.8 1011.7 0.0
15/07:00pm 21.7 17.5 8.2 42 7.1 W 20 32 11 17 1011.4 1011.3 0.0
15/06:30pm 22.4 18.2 7.4 38 7.8 W 19 24 10 13 1011.3 1011.2 0.0
15/06:00pm 23.2 18.0 7.3 36 8.3 W 24 33 13 18 1011.1 1011.0 0.0
15/05:30pm 23.2 18.0 7.3 36 8.3 W 24 35 13 19 1010.9 1010.8 0.0
15/05:00pm 23.5 17.7 6.3 33 8.8 WNW 26 35 14 19 1010.8 1010.7 0.0
15/04:30pm 24.3 19.4 7.0 33 9.0 WNW 22 33 12 18 1010.8 1010.7 0.0
15/04:00pm 25.0 19.8 7.2 32 9.4 WNW 24 37 13 20 1010.7 1010.6 0.0
15/03:30pm 25.0 20.3 6.2 30 9.7 WNW 20 35 11 19 1010.8 1010.7 0.0
15/03:00pm 24.7 20.2 6.0 30 9.6 NW 19 33 10 18 1010.9 1010.8 0.0
15/02:30pm 25.7 22.8 8.2 33 9.4 WNW 13 22 7 12 1011.1 1011.0 0.0
15/02:00pm 24.3 20.1 7.4 34 8.9 W 19 33 10 18 1011.5 1011.4 0.0
15/01:30pm 23.8 19.5 7.0 34 8.7 NNW 19 32 10 17 1011.8 1011.7 0.0
15/01:00pm 22.9 19.4 7.1 36 8.2 NW 15 24 8 13 1012.1 1012.0 0.0
15/12:30pm 22.0 18.9 7.4 39 7.6 WNW 13 22 7 12 1012.4 1012.3 0.0
15/12:00pm 20.9 17.6 8.2 44 6.6 WNW 15 26 8 14 1012.6 1012.5 0.0
15/11:30am 21.2 18.5 9.1 46 6.4 NW 13 19 7 10 1012.9 1012.8 0.0
15/11:00am 20.6 18.4 9.2 48 6.1 NW 11 19 6 10 1013.2 1013.1 0.0
15/10:30am 19.8 17.9 9.1 50 5.7 WNW 9 17 5 9 1013.3 1013.2 0.0
15/10:00am 19.0 17.7 10.0 56 4.8 NW 7 13 4 7 1013.5 1013.4 0.0
15/09:30am 17.9 16.5 9.5 58 4.4 NW 7 13 4 7 1013.7 1013.6 0.0
15/09:00am 17.0 16.2 11.1 68 3.2 NW 6 11 3 6 1013.7 1013.6 0.0
15/08:30am 15.9 15.9 11.3 74 2.5 NW 2 6 1 3 1013.8 1013.7 0.0
15/08:00am 14.4 13.4 11.0 80 1.8 N 7 9 4 5 1014.0 1013.9 0.0
15/07:30am 12.9 11.8 10.6 86 1.2 NNE 7 9 4 5 1013.8 1013.7 0.0
15/07:00am 11.0 10.9 9.6 91 0.7 CALM 0 0 0 0 1013.8 1013.7 0.0
15/06:30am 9.7 9.5 8.9 95 0.4 CALM 0 0 0 0 1013.6 1013.5 0.0
15/06:00am 7.9 7.2 7.1 95 0.4 CALM 0 0 0 0 1013.2 1013.1 0.0
15/05:30am 7.3 6.4 6.2 93 0.5 CALM 0 0 0 0 1013.0 1012.9 0.0
15/05:00am 8.5 6.8 7.6 94 0.4 N 6 7 3 4 1012.7 1012.6 0.0
15/04:30am 8.6 7.7 7.7 94 0.4 N 2 6 1 3 1012.5 1012.4 0.0
15/04:00am 9.3 7.8 8.4 94 0.4 N 6 9 3 5 1012.5 1012.4 0.0
15/03:30am 8.8 8.3 7.7 93 0.5 CALM 0 0 0 0 1012.4 1012.3 0.0
15/03:00am 8.8 7.9 7.7 93 0.5 NNE 2 7 1 4 1012.6 1012.5 0.0
15/02:30am 8.8 8.2 7.3 90 0.7 CALM 0 0 0 0 1012.8 1012.7 0.0
15/02:00am 10.1 8.7 9.0 93 0.5 NE 6 7 3 4 1013.0 1012.9 0.0
15/01:30am 9.8 8.4 8.7 93 0.5 E 6 7 3 4 1013.1 1013.0 0.0
15/01:00am 8.9 7.0 7.7 92 0.6 SSE 7 9 4 5 1013.2 1013.1 0.0
15/12:30am 9.3 8.4 7.7 90 0.8 S 2 7 1 4 1013.5 1013.4 0.0
15/12:00am 9.8 9.4 8.1 89 0.8 CALM 0 0 0 0 1013.6 1013.5 0.0
 
Date/Time
CDT
Temp
°C
App
Temp
°C
Dew
Point
°C
Rel
Hum
%
Delta-T
°C
Wind Press
QNH
hPa
Press
MSL
hPa
Rain since
9am
mm
Dir  Spd
km/h
Gust
km/h
Spd
kts
Gust
kts
14/11:30pm 9.9 8.1 8.0 88 0.9 S 7 9 4 5 1013.6 1013.5 0.0
14/11:00pm 10.5 8.7 8.1 85 1.2 S 7 9 4 5 1013.6 1013.5 0.0

Other Formats:

Comma delimited format used in spreadsheet applications
http://www.bom.gov.au/fwo/IDS60801/IDS60801.94820.axf

JavaScript Object Notation format (JSON) in row-major order
http://www.bom.gov.au/fwo/IDS60801/IDS60801.94820.json